Time;durP1;ratioP1;P1;durP2;ratioP2;P2;SDS_P1;SDS_P2;PMS_P1;PMS_P2;Temp;Humidity;BMP_temperature;BMP_pressure;BME280_temperature;BME280_humidity;BME280_pressure;Samples;Min_cycle;Max_cycle;Signal;HPM_P1;HPM_P2
2022/12/03 00:01:41;;;;;;;0.00;0.00;;;3.00;99.90;;;;;;5050708;28;20388;-68
2022/12/03 00:04:06;;;;;;;0.10;0.10;;;3.00;99.90;;;;;;5051103;28;20581;-68
2022/12/03 00:06:32;;;;;;;0.10;0.10;;;3.00;99.90;;;;;;5051123;28;20590;-68
2022/12/03 00:08:57;;;;;;;0.00;0.00;;;3.00;99.90;;;;;;5051240;28;20189;-68
2022/12/03 00:11:23;;;;;;;0.10;0.10;;;3.00;99.90;;;;;;5050982;28;20260;-67
2022/12/03 00:13:48;;;;;;;0.13;0.13;;;3.00;99.90;;;;;;5051005;28;20223;-67
2022/12/03 00:16:14;;;;;;;0.00;0.00;;;2.90;99.90;;;;;;5051250;28;20656;-68
2022/12/03 00:18:39;;;;;;;0.00;0.00;;;3.00;99.90;;;;;;5050835;28;20193;-67
2022/12/03 00:21:05;;;;;;;0.28;0.28;;;2.90;99.90;;;;;;5051352;28;20191;-67
2022/12/03 00:23:31;;;;;;;0.00;0.00;;;2.90;99.90;;;;;;5051245;28;20193;-67
2022/12/03 00:25:56;;;;;;;0.30;0.30;;;2.90;99.90;;;;;;5051354;28;20237;-67
2022/12/03 00:28:22;;;;;;;0.10;0.10;;;2.90;99.90;;;;;;5038632;28;20710;-67
2022/12/03 00:30:48;;;;;;;0.00;0.00;;;2.90;99.90;;;;;;5051025;28;20661;-68
2022/12/03 00:33:13;;;;;;;0.00;0.00;;;2.90;99.90;;;;;;5051107;28;20706;-68
2022/12/03 00:35:39;;;;;;;0.03;0.03;;;2.90;99.90;;;;;;5049856;28;20535;-67
2022/12/03 00:38:04;;;;;;;0.00;0.00;;;2.90;99.90;;;;;;5051017;28;20255;-67
2022/12/03 00:40:30;;;;;;;0.32;0.32;;;2.90;99.90;;;;;;5052508;28;20249;-67
2022/12/03 00:42:55;;;;;;;0.10;0.10;;;2.90;99.90;;;;;;5054718;28;20177;-68
2022/12/03 00:45:21;;;;;;;0.00;0.00;;;2.80;99.90;;;;;;5055299;28;20195;-68
2022/12/03 00:47:46;;;;;;;0.13;0.13;;;2.80;99.90;;;;;;5054936;28;20181;-68
2022/12/03 00:50:12;;;;;;;0.15;0.15;;;2.80;99.90;;;;;;5054799;28;20299;-68
2022/12/03 00:52:37;;;;;;;0.25;0.25;;;2.80;99.90;;;;;;5052790;28;20220;-67
2022/12/03 00:55:03;;;;;;;0.13;0.13;;;2.80;99.90;;;;;;5054688;28;20185;-67
2022/12/03 00:57:29;;;;;;;0.00;0.00;;;2.80;99.90;;;;;;5053526;28;20196;-68
2022/12/03 00:59:54;;;;;;;0.20;0.20;;;2.80;99.90;;;;;;5054868;28;20205;-68
2022/12/03 01:02:20;;;;;;;0.05;0.05;;;2.80;99.90;;;;;;5054944;28;20217;-68
2022/12/03 01:04:45;;;;;;;0.10;0.10;;;2.80;99.90;;;;;;5054318;28;20173;-67
2022/12/03 01:07:11;;;;;;;0.00;0.00;;;2.80;99.90;;;;;;5054485;28;20189;-67
2022/12/03 01:09:36;;;;;;;0.10;0.10;;;2.80;99.90;;;;;;5054771;28;20174;-68
2022/12/03 01:12:02;;;;;;;0.03;0.03;;;2.90;99.90;;;;;;5046903;28;20210;-68
2022/12/03 01:14:28;;;;;;;0.00;0.00;;;2.90;99.90;;;;;;5054930;28;20239;-68
2022/12/03 01:16:53;;;;;;;0.03;0.03;;;2.90;99.90;;;;;;5054646;28;20256;-68
2022/12/03 01:19:19;;;;;;;0.00;0.00;;;2.90;99.90;;;;;;5054388;28;20555;-68
2022/12/03 01:21:47;;;;;;;0.00;0.00;;;2.90;99.90;;;;;;5054734;28;20695;-68
2022/12/03 01:24:13;;;;;;;0.00;0.00;;;2.90;99.90;;;;;;5054272;28;20178;-68
2022/12/03 01:26:39;;;;;;;0.00;0.00;;;2.90;99.90;;;;;;5054192;28;20181;-68
2022/12/03 01:29:05;;;;;;;0.20;0.20;;;2.90;99.90;;;;;;5054226;28;20185;-67
2022/12/03 01:34:15;;;;;;;0.05;0.05;;;2.90;99.90;;;;;;5054591;28;20195;-68
2022/12/03 01:36:41;;;;;;;0.10;0.10;;;2.90;99.90;;;;;;5053713;28;20173;-67
2022/12/03 01:39:07;;;;;;;0.65;0.65;;;2.90;99.90;;;;;;5053926;28;20703;-67
2022/12/03 01:41:34;;;;;;;0.10;0.10;;;2.90;99.90;;;;;;5054024;28;20268;-68
2022/12/03 01:44:01;;;;;;;0.30;0.28;;;2.90;99.90;;;;;;5054338;28;20641;-68
2022/12/03 01:46:33;;;;;;;0.00;0.00;;;2.90;99.90;;;;;;5053742;28;20190;-68
2022/12/03 01:48:59;;;;;;;0.00;0.00;;;2.90;99.90;;;;;;5054263;28;20181;-68
2022/12/03 01:51:24;;;;;;;0.00;0.00;;;2.90;99.90;;;;;;5052951;28;20186;-68
2022/12/03 01:53:50;;;;;;;0.00;0.00;;;2.90;99.90;;;;;;5053805;28;20519;-68
2022/12/03 01:56:17;;;;;;;0.00;0.00;;;2.90;99.90;;;;;;5054266;28;20181;-68
2022/12/03 01:58:44;;;;;;;0.00;0.00;;;2.90;99.90;;;;;;5053270;28;20185;-68
2022/12/03 02:01:13;;;;;;;0.00;0.00;;;2.90;99.90;;;;;;5054052;28;20173;-68
2022/12/03 02:03:39;;;;;;;0.00;0.00;;;2.90;99.90;;;;;;5052346;28;20632;-68
2022/12/03 02:06:13;;;;;;;0.13;0.13;;;2.90;99.90;;;;;;5052663;28;20184;-68
2022/12/03 02:08:40;;;;;;;0.10;0.10;;;2.90;99.90;;;;;;5048803;28;20211;-67
2022/12/03 02:11:20;;;;;;;0.05;0.05;;;2.90;99.90;;;;;;5053269;28;20549;-67
2022/12/03 02:13:48;;;;;;;0.20;0.15;;;2.80;99.90;;;;;;5053235;28;20193;-67
2022/12/03 02:16:13;;;;;;;0.00;0.00;;;2.80;99.90;;;;;;5052917;28;20186;-68
2022/12/03 02:18:39;;;;;;;0.40;0.40;;;2.80;99.90;;;;;;5053458;28;20276;-67
2022/12/03 02:21:26;;;;;;;0.00;0.00;;;2.80;99.90;;;;;;5052088;28;20181;-67
2022/12/03 02:24:09;;;;;;;0.00;0.00;;;2.80;99.90;;;;;;5053492;28;20209;-67
2022/12/03 02:26:35;;;;;;;0.00;0.00;;;2.80;99.90;;;;;;5053202;28;20227;-67
2022/12/03 02:29:01;;;;;;;0.10;0.10;;;2.80;99.90;;;;;;5052379;28;20201;-67
2022/12/03 02:31:27;;;;;;;0.00;0.00;;;2.80;99.90;;;;;;5052930;28;20177;-67
2022/12/03 02:33:52;;;;;;;0.52;0.52;;;2.80;99.90;;;;;;5053334;28;20185;-67
2022/12/03 02:36:18;;;;;;;0.00;0.00;;;2.90;99.90;;;;;;5053156;28;20178;-68
2022/12/03 02:38:46;;;;;;;0.17;0.17;;;2.90;99.90;;;;;;5047952;28;20204;-68
2022/12/03 02:42:33;;;;;;;0.57;0.57;;;2.90;99.90;;;;;;5052714;28;20166;-67
2022/12/03 02:44:04;;;;;;;0.80;0.75;;;2.90;99.90;;;;;;5052503;28;20185;-68
2022/12/03 02:46:30;;;;;;;0.20;0.08;;;2.90;99.90;;;;;;5051870;28;20185;-68
2022/12/03 02:48:57;;;;;;;0.03;0.03;;;2.90;99.90;;;;;;5052761;28;20181;-67
2022/12/03 02:51:23;;;;;;;0.00;0.00;;;2.90;99.90;;;;;;5053012;28;20232;-68
2022/12/03 02:53:51;;;;;;;0.00;0.00;;;2.90;99.90;;;;;;5053083;28;20653;-68
2022/12/03 02:56:21;;;;;;;0.00;0.00;;;2.90;99.90;;;;;;5052953;28;20231;-68
2022/12/03 02:58:50;;;;;;;0.00;0.00;;;2.90;99.90;;;;;;5053361;28;20177;-68
2022/12/03 03:01:16;;;;;;;0.00;0.00;;;2.90;99.90;;;;;;5051666;28;20574;-68
2022/12/03 03:03:43;;;;;;;0.00;0.00;;;2.90;99.90;;;;;;5052627;28;20632;-68
2022/12/03 03:06:09;;;;;;;0.00;0.00;;;2.90;99.90;;;;;;5053188;28;20169;-67
2022/12/03 03:08:36;;;;;;;0.00;0.00;;;2.90;99.90;;;;;;5052720;28;20648;-68
2022/12/03 03:11:03;;;;;;;0.10;0.10;;;2.90;99.90;;;;;;5052489;28;20270;-67
2022/12/03 03:13:31;;;;;;;0.57;0.57;;;2.90;99.90;;;;;;5052702;28;20256;-67
2022/12/03 03:15:57;;;;;;;0.00;0.00;;;2.90;99.90;;;;;;5052741;28;20652;-68
2022/12/03 03:18:22;;;;;;;0.38;0.30;;;2.90;99.90;;;;;;5052655;28;20548;-68
2022/12/03 03:20:48;;;;;;;0.25;0.25;;;2.90;99.90;;;;;;5052772;28;20197;-67
2022/12/03 03:23:18;;;;;;;0.15;0.15;;;2.90;99.90;;;;;;5052561;28;20181;-68
2022/12/03 03:25:47;;;;;;;0.15;0.15;;;2.90;99.90;;;;;;5052607;28;20330;-68
2022/12/03 03:28:14;;;;;;;1.30;0.43;;;2.90;99.90;;;;;;5052377;28;20617;-68
2022/12/03 03:30:41;;;;;;;0.10;0.10;;;2.90;99.90;;;;;;5051254;28;20185;-68
2022/12/03 03:33:07;;;;;;;0.08;0.08;;;2.90;99.90;;;;;;5051031;28;20576;-68
2022/12/03 03:35:33;;;;;;;0.45;0.45;;;2.90;99.90;;;;;;5052548;28;20251;-68
2022/12/03 03:37:59;;;;;;;0.10;0.10;;;2.90;99.90;;;;;;5052084;28;20178;-68
2022/12/03 03:40:25;;;;;;;0.20;0.20;;;2.80;99.90;;;;;;5052399;28;20689;-68
2022/12/03 03:42:51;;;;;;;0.00;0.00;;;2.80;99.90;;;;;;5052097;28;20185;-68
2022/12/03 03:45:17;;;;;;;0.15;0.15;;;2.80;99.90;;;;;;5052108;28;20196;-68
2022/12/03 03:47:43;;;;;;;0.08;0.08;;;2.80;99.90;;;;;;5051865;28;20247;-68
2022/12/03 03:50:11;;;;;;;0.40;0.40;;;2.80;99.90;;;;;;5052076;28;20181;-68
2022/12/03 03:52:37;;;;;;;0.20;0.20;;;2.70;99.90;;;;;;5052215;28;20217;-68
2022/12/03 03:55:05;;;;;;;0.10;0.10;;;2.70;99.90;;;;;;5051863;28;20181;-68
2022/12/03 03:57:31;;;;;;;0.45;0.45;;;2.70;99.90;;;;;;5050598;28;20203;-68
2022/12/03 03:59:58;;;;;;;0.00;0.00;;;2.70;99.90;;;;;;5052116;28;20260;-68
2022/12/03 04:02:25;;;;;;;0.00;0.00;;;2.70;99.90;;;;;;5051805;28;20619;-68
2022/12/03 04:04:50;;;;;;;0.00;0.00;;;2.70;99.90;;;;;;5051743;28;20220;-68
2022/12/03 04:07:16;;;;;;;0.60;0.47;;;2.70;99.90;;;;;;5051675;28;20209;-68
2022/12/03 04:09:42;;;;;;;0.15;0.15;;;2.60;99.90;;;;;;5051409;28;20229;-69
2022/12/03 04:14:52;;;;;;;0.08;0.08;;;2.70;99.90;;;;;;5051306;28;20671;-68
2022/12/03 04:17:18;;;;;;;0.40;0.40;;;2.60;99.90;;;;;;5051567;28;20186;-68
2022/12/03 04:19:43;;;;;;;0.38;0.15;;;2.60;99.90;;;;;;5051690;28;20182;-68
2022/12/03 04:28:47;;;;;;;0.27;0.27;;;2.60;99.90;;;;;;5052118;28;20188;-68
2022/12/03 04:30:22;;;;;;;0.00;0.00;;;2.50;99.90;;;;;;5051399;28;20597;-68
2022/12/03 04:35:44;;;;;;;0.23;0.23;;;2.50;99.90;;;;;;5051584;28;20212;-68
2022/12/03 04:38:11;;;;;;;0.20;0.20;;;2.50;99.90;;;;;;5051536;28;20203;-68
2022/12/03 04:43:21;;;;;;;0.65;0.65;;;2.50;99.90;;;;;;5051621;28;20234;-68
2022/12/03 04:45:47;;;;;;;0.10;0.10;;;2.50;99.90;;;;;;5051223;28;20193;-68
2022/12/03 04:48:12;;;;;;;0.63;0.55;;;2.50;99.90;;;;;;5051641;28;20180;-68
2022/12/03 04:50:38;;;;;;;1.65;0.95;;;2.50;99.90;;;;;;5051154;28;20628;-67
2022/12/03 04:53:04;;;;;;;0.00;0.00;;;2.50;99.90;;;;;;5051321;28;20221;-67
2022/12/03 04:55:29;;;;;;;0.08;0.08;;;2.50;99.90;;;;;;5051190;28;20624;-68
2022/12/03 04:57:55;;;;;;;0.33;0.33;;;2.50;99.90;;;;;;5050570;28;20662;-68
2022/12/03 05:00:20;;;;;;;0.40;0.40;;;2.60;99.90;;;;;;5046415;28;20185;-68
2022/12/03 05:02:46;;;;;;;0.80;0.63;;;2.60;99.90;;;;;;5051327;28;20230;-68
2022/12/03 05:05:12;;;;;;;0.05;0.05;;;2.60;99.90;;;;;;5051325;28;20798;-68
2022/12/03 05:07:37;;;;;;;0.10;0.10;;;2.60;99.90;;;;;;5051255;28;20189;-68
2022/12/03 05:10:04;;;;;;;0.00;0.00;;;2.60;99.90;;;;;;5050879;28;20225;-68
2022/12/03 05:12:29;;;;;;;0.10;0.10;;;2.60;99.90;;;;;;5050879;28;20224;-68
2022/12/03 05:14:55;;;;;;;0.00;0.00;;;2.60;99.90;;;;;;5049443;28;20181;-68
2022/12/03 05:17:20;;;;;;;0.15;0.15;;;2.60;99.90;;;;;;5050652;28;20199;-68
2022/12/03 05:22:30;;;;;;;0.00;0.00;;;2.70;99.90;;;;;;5051002;28;20193;-67
2022/12/03 05:24:55;;;;;;;0.00;0.00;;;2.70;99.90;;;;;;5050800;28;20189;-67
2022/12/03 05:27:21;;;;;;;0.20;0.20;;;2.70;99.90;;;;;;5054651;28;20582;-67
2022/12/03 05:29:47;;;;;;;0.20;0.20;;;2.70;99.90;;;;;;5054128;28;20280;-68
2022/12/03 05:32:12;;;;;;;0.30;0.30;;;2.70;99.90;;;;;;5054624;28;20683;-68
2022/12/03 05:34:38;;;;;;;0.05;0.05;;;2.70;99.90;;;;;;5054472;28;20205;-68
2022/12/03 05:37:04;;;;;;;0.00;0.00;;;2.70;99.90;;;;;;5054258;28;20256;-68
2022/12/03 05:39:30;;;;;;;0.00;0.00;;;2.60;99.90;;;;;;5054623;28;20205;-68
2022/12/03 05:44:39;;;;;;;0.60;0.60;;;2.70;99.90;;;;;;5054283;28;20558;-68
2022/12/03 05:47:05;;;;;;;0.80;0.30;;;2.70;99.90;;;;;;5054540;28;20177;-67
2022/12/03 05:49:30;;;;;;;0.30;0.30;;;2.60;99.90;;;;;;5054277;28;20182;-68
2022/12/03 05:51:56;;;;;;;0.10;0.10;;;2.60;99.90;;;;;;5054065;28;20235;-68
2022/12/03 05:54:21;;;;;;;0.20;0.20;;;2.60;99.90;;;;;;5052684;28;20219;-67
2022/12/03 05:56:47;;;;;;;0.20;0.20;;;2.60;99.90;;;;;;5053796;28;20182;-68
2022/12/03 05:59:12;;;;;;;0.20;0.20;;;2.60;99.90;;;;;;5052900;28;20207;-68
2022/12/03 06:01:38;;;;;;;0.25;0.25;;;2.60;99.90;;;;;;5052549;28;20181;-68
2022/12/03 06:04:03;;;;;;;0.17;0.17;;;2.60;99.90;;;;;;5053343;28;20182;-68
2022/12/03 06:06:29;;;;;;;0.10;0.10;;;2.60;99.90;;;;;;5054161;28;20184;-68
2022/12/03 06:08:54;;;;;;;1.25;0.40;;;2.60;99.90;;;;;;5053846;28;20543;-68
2022/12/03 06:11:20;;;;;;;0.00;0.00;;;2.60;99.90;;;;;;5053508;28;20591;-68
2022/12/03 06:13:45;;;;;;;0.38;0.38;;;2.60;99.90;;;;;;5053946;28;20222;-68
2022/12/03 06:16:11;;;;;;;0.32;0.32;;;2.60;99.90;;;;;;5053820;28;20170;-67
2022/12/03 06:18:37;;;;;;;0.03;0.03;;;2.60;99.90;;;;;;5053891;28;20666;-68
2022/12/03 06:21:02;;;;;;;0.00;0.00;;;2.60;99.90;;;;;;5053566;28;20255;-68
2022/12/03 06:23:28;;;;;;;1.30;1.20;;;2.60;99.90;;;;;;5052683;28;20200;-68
2022/12/03 06:25:53;;;;;;;0.00;0.00;;;2.60;99.90;;;;;;5051367;28;20376;-67
2022/12/03 06:28:19;;;;;;;0.35;0.35;;;2.60;99.90;;;;;;5052014;28;20185;-68
2022/12/03 06:30:44;;;;;;;0.00;0.00;;;2.50;99.90;;;;;;5053061;28;20228;-68
2022/12/03 06:33:10;;;;;;;0.00;0.00;;;2.60;99.90;;;;;;5053270;28;20259;-68
2022/12/03 06:35:35;;;;;;;0.05;0.05;;;2.60;99.90;;;;;;5053094;28;20232;-68
2022/12/03 06:38:01;;;;;;;0.10;0.10;;;2.60;99.90;;;;;;5052322;28;20188;-68
2022/12/03 06:40:26;;;;;;;0.00;0.00;;;2.60;99.90;;;;;;5053097;28;20264;-68
2022/12/03 06:42:52;;;;;;;0.03;0.03;;;2.60;99.90;;;;;;5053035;28;20217;-68
2022/12/03 06:45:18;;;;;;;0.10;0.10;;;2.60;99.90;;;;;;5053281;28;20174;-69
2022/12/03 06:47:43;;;;;;;0.10;0.10;;;2.60;99.90;;;;;;5063549;28;20236;-68
2022/12/03 06:50:09;;;;;;;0.05;0.05;;;2.60;99.90;;;;;;5053261;28;20177;-68
2022/12/03 06:52:35;;;;;;;0.08;0.08;;;2.70;99.90;;;;;;5053366;28;20251;-69
2022/12/03 06:55:01;;;;;;;0.15;0.15;;;2.70;99.90;;;;;;5053086;28;20230;-68
2022/12/03 06:57:26;;;;;;;0.57;0.57;;;2.60;99.90;;;;;;5053281;28;20188;-69
2022/12/03 06:59:52;;;;;;;0.00;0.00;;;2.60;99.90;;;;;;5053027;28;20260;-69
2022/12/03 07:02:18;;;;;;;0.47;0.47;;;2.60;99.90;;;;;;5052957;28;20174;-69
2022/12/03 07:04:43;;;;;;;0.73;0.73;;;2.60;99.90;;;;;;5053373;28;20539;-69
2022/12/03 07:07:09;;;;;;;0.20;0.20;;;2.70;99.90;;;;;;5052953;28;20174;-69
2022/12/03 07:09:34;;;;;;;0.00;0.00;;;2.70;99.90;;;;;;5053099;28;20221;-68
2022/12/03 07:12:00;;;;;;;0.00;0.00;;;2.70;99.90;;;;;;5051762;28;20217;-68
2022/12/03 07:14:25;;;;;;;0.20;0.20;;;2.70;99.90;;;;;;5053201;28;20185;-68
2022/12/03 07:16:51;;;;;;;0.25;0.25;;;2.70;99.90;;;;;;5051440;28;20182;-69
2022/12/03 07:19:17;;;;;;;0.00;0.00;;;2.70;99.90;;;;;;5052890;28;20182;-69
2022/12/03 07:21:42;;;;;;;0.15;0.15;;;2.70;99.90;;;;;;5051465;28;20207;-68
2022/12/03 07:24:08;;;;;;;0.00;0.00;;;2.70;99.90;;;;;;5052474;28;20181;-67
2022/12/03 07:26:34;;;;;;;0.03;0.03;;;2.70;99.90;;;;;;5052832;28;20185;-69
2022/12/03 07:28:59;;;;;;;0.77;0.77;;;2.80;99.90;;;;;;5052780;28;20235;-70
2022/12/03 07:31:25;;;;;;;0.68;0.68;;;2.80;99.90;;;;;;5052821;28;20183;-69
2022/12/03 07:33:50;;;;;;;0.15;0.15;;;2.80;99.90;;;;;;5052738;28;20184;-70
2022/12/03 07:36:16;;;;;;;0.00;0.00;;;2.70;99.90;;;;;;5052876;28;20182;-70
2022/12/03 07:38:42;;;;;;;0.28;0.28;;;2.70;99.90;;;;;;5052460;28;20186;-67
2022/12/03 07:41:07;;;;;;;0.45;0.45;;;2.80;99.90;;;;;;5052237;28;20181;-73
2022/12/03 07:43:33;;;;;;;0.17;0.17;;;2.80;99.90;;;;;;5052801;28;20224;-74
2022/12/03 07:45:58;;;;;;;0.15;0.10;;;2.80;99.90;;;;;;5050944;28;20213;-70
2022/12/03 07:48:24;;;;;;;0.15;0.15;;;2.80;99.90;;;;;;5052351;28;20185;-69
2022/12/03 07:50:49;;;;;;;0.40;0.40;;;2.90;99.90;;;;;;5051655;28;20185;-70
2022/12/03 07:53:15;;;;;;;0.22;0.22;;;2.90;99.90;;;;;;5052581;28;20209;-69
2022/12/03 07:55:40;;;;;;;0.55;0.55;;;2.90;99.90;;;;;;5052068;28;20654;-69
2022/12/03 07:58:06;;;;;;;0.10;0.10;;;2.90;99.90;;;;;;5052395;28;20201;-68
2022/12/03 08:00:31;;;;;;;0.47;0.47;;;2.90;99.90;;;;;;5052091;28;20208;-71
2022/12/03 08:02:57;;;;;;;0.65;0.65;;;2.90;99.90;;;;;;5052315;28;20260;-66
2022/12/03 08:05:22;;;;;;;0.20;0.20;;;2.90;99.90;;;;;;5052137;28;20181;-70
2022/12/03 08:07:48;;;;;;;0.30;0.30;;;2.90;99.90;;;;;;5052276;28;20177;-73
2022/12/03 08:10:13;;;;;;;0.15;0.15;;;3.00;99.90;;;;;;5051535;28;20225;-74
2022/12/03 08:12:39;;;;;;;0.10;0.10;;;3.00;99.90;;;;;;5052211;28;20331;-73
2022/12/03 08:15:14;;;;;;;0.45;0.45;;;3.00;99.90;;;;;;5050401;28;20181;-66
2022/12/03 08:17:41;;;;;;;0.10;0.10;;;3.00;99.90;;;;;;5051517;28;20184;-71
2022/12/03 08:20:21;;;;;;;0.63;0.63;;;3.00;99.90;;;;;;5052276;28;20170;-70
2022/12/03 08:22:49;;;;;;;0.28;0.28;;;3.00;99.90;;;;;;5051971;28;20178;-69
2022/12/03 08:25:20;;;;;;;0.32;0.32;;;3.00;99.90;;;;;;5049647;28;20185;-71
2022/12/03 08:27:46;;;;;;;0.00;0.00;;;3.00;99.90;;;;;;5050331;28;20181;-70
2022/12/03 08:30:13;;;;;;;0.10;0.10;;;3.10;99.90;;;;;;5051666;28;20181;-70
2022/12/03 08:32:39;;;;;;;0.20;0.20;;;3.10;99.90;;;;;;5051333;28;20581;-70
2022/12/03 08:35:19;;;;;;;0.20;0.20;;;3.10;99.90;;;;;;5051266;28;20185;-71
2022/12/03 08:37:44;;;;;;;0.10;0.10;;;3.20;99.90;;;;;;5051515;28;20208;-70
2022/12/03 08:40:22;;;;;;;0.22;0.17;;;3.20;99.90;;;;;;5050429;28;20181;-70
2022/12/03 08:42:48;;;;;;;0.10;0.10;;;3.30;99.90;;;;;;5051747;28;20169;-70
2022/12/03 08:45:38;;;;;;;0.00;0.00;;;3.30;99.90;;;;;;5051933;28;20608;-70
2022/12/03 08:48:25;;;;;;;0.40;0.40;;;3.30;99.90;;;;;;5051852;28;20276;-70
2022/12/03 08:50:54;;;;;;;0.35;0.35;;;3.40;99.90;;;;;;5051622;28;20737;-70
2022/12/03 08:53:28;;;;;;;1.00;1.00;;;3.40;99.90;;;;;;5051685;28;20212;-70
2022/12/03 08:55:57;;;;;;;0.73;0.05;;;3.40;99.90;;;;;;5051674;28;20599;-70
2022/12/03 08:58:40;;;;;;;0.35;0.35;;;3.40;99.90;;;;;;5051993;28;20176;-69
2022/12/03 09:01:11;;;;;;;0.40;0.40;;;3.40;99.90;;;;;;5053625;28;20193;-70
2022/12/03 09:03:48;;;;;;;0.30;0.30;;;3.50;99.90;;;;;;5055674;28;20248;-70
2022/12/03 09:06:14;;;;;;;0.00;0.00;;;3.50;99.90;;;;;;5055772;28;20176;-70
2022/12/03 09:08:39;;;;;;;0.10;0.10;;;3.50;99.90;;;;;;5055434;28;20180;-70
2022/12/03 09:11:05;;;;;;;0.13;0.13;;;3.50;99.90;;;;;;5054473;28;20303;-70
2022/12/03 09:13:30;;;;;;;0.00;0.00;;;3.50;99.90;;;;;;5053968;28;20213;-70
2022/12/03 09:15:56;;;;;;;0.55;0.55;;;3.50;99.90;;;;;;5055146;28;20675;-70
2022/12/03 09:18:21;;;;;;;0.00;0.00;;;3.60;99.90;;;;;;5054696;28;20621;-70
2022/12/03 09:20:47;;;;;;;0.00;0.00;;;3.60;99.90;;;;;;5055039;28;20187;-70
2022/12/03 09:23:12;;;;;;;0.32;0.32;;;3.60;99.90;;;;;;5054909;28;20184;-70
2022/12/03 09:25:38;;;;;;;0.10;0.10;;;3.60;99.90;;;;;;5054817;28;20239;-70
2022/12/03 09:28:03;;;;;;;0.10;0.10;;;3.70;99.90;;;;;;5055215;28;20668;-70
2022/12/03 09:30:29;;;;;;;0.00;0.00;;;3.70;99.90;;;;;;5054908;28;20181;-70
2022/12/03 09:32:55;;;;;;;0.17;0.17;;;3.70;99.90;;;;;;5053567;28;20228;-70
2022/12/03 09:35:20;;;;;;;0.20;0.20;;;3.70;99.90;;;;;;5055183;28;20173;-70
2022/12/03 09:37:46;;;;;;;0.40;0.40;;;3.70;99.90;;;;;;5054105;28;20515;-69
2022/12/03 09:40:12;;;;;;;0.20;0.20;;;3.70;99.90;;;;;;5054518;28;20178;-70
2022/12/03 09:42:38;;;;;;;0.22;0.22;;;3.70;99.90;;;;;;5054341;28;20192;-70
2022/12/03 09:45:09;;;;;;;0.03;0.03;;;3.80;99.90;;;;;;5053047;28;20585;-71
2022/12/03 09:47:35;;;;;;;0.55;0.55;;;3.80;99.90;;;;;;5053820;28;20537;-70
2022/12/03 09:50:01;;;;;;;0.05;0.05;;;3.80;99.90;;;;;;5054446;28;20201;-70
2022/12/03 09:52:30;;;;;;;0.10;0.10;;;3.90;99.90;;;;;;5054036;28;20310;-70
2022/12/03 09:54:56;;;;;;;0.25;0.25;;;4.00;99.90;;;;;;5054392;28;20182;-66
2022/12/03 09:57:22;;;;;;;0.10;0.10;;;4.00;99.90;;;;;;5052985;28;20173;-71
2022/12/03 09:59:48;;;;;;;0.05;0.05;;;4.00;99.90;;;;;;5053970;28;20183;-70
2022/12/03 10:02:23;;;;;;;0.00;0.00;;;4.00;99.90;;;;;;5054597;28;20256;-71
2022/12/03 10:04:49;;;;;;;0.40;0.40;;;4.10;99.90;;;;;;5054264;28;20267;-73
2022/12/03 10:07:15;;;;;;;0.13;0.13;;;4.10;99.90;;;;;;5054555;28;20768;-72
2022/12/03 10:09:40;;;;;;;0.43;0.43;;;4.10;99.90;;;;;;5054199;28;20165;-72
2022/12/03 10:12:10;;;;;;;0.68;0.68;;;4.00;99.90;;;;;;5053115;28;20213;-72
2022/12/03 10:14:36;;;;;;;0.10;0.10;;;4.00;99.90;;;;;;5053802;28;20644;-72
2022/12/03 10:17:02;;;;;;;0.22;0.22;;;4.10;99.90;;;;;;5055274;28;20188;-72
2022/12/03 10:19:31;;;;;;;0.80;0.50;;;4.10;99.90;;;;;;5054224;28;20177;-72
2022/12/03 10:21:57;;;;;;;0.10;0.10;;;4.10;99.90;;;;;;5054231;28;20193;-72
2022/12/03 10:24:24;;;;;;;0.60;0.60;;;4.10;99.90;;;;;;5054258;28;20244;-72
2022/12/03 10:26:51;;;;;;;0.00;0.00;;;4.10;99.90;;;;;;5054047;28;20181;-72
2022/12/03 10:29:20;;;;;;;0.30;0.30;;;4.20;99.90;;;;;;5054020;28;20174;-72
2022/12/03 10:31:58;;;;;;;0.30;0.30;;;4.20;99.90;;;;;;5053820;28;20177;-73
2022/12/03 10:34:32;;;;;;;0.10;0.10;;;4.30;99.90;;;;;;5054085;28;20187;-72
2022/12/03 10:37:12;;;;;;;0.15;0.15;;;4.30;99.90;;;;;;5053994;28;20177;-72
2022/12/03 10:40:08;;;;;;;0.00;0.00;;;4.40;99.90;;;;;;5053722;28;20346;-72
2022/12/03 10:42:39;;;;;;;0.08;0.08;;;4.50;99.90;;;;;;5051792;28;20190;-72
2022/12/03 10:45:16;;;;;;;0.17;0.17;;;4.60;99.90;;;;;;5053689;28;20170;-71
2022/12/03 10:47:44;;;;;;;0.00;0.00;;;4.60;99.90;;;;;;5053664;28;20204;-72
2022/12/03 10:50:18;;;;;;;0.47;0.47;;;4.70;99.90;;;;;;5053673;28;20177;-72
2022/12/03 10:52:45;;;;;;;0.00;0.00;;;4.70;99.90;;;;;;5053450;28;20220;-71
2022/12/03 10:55:14;;;;;;;0.10;0.10;;;4.80;99.90;;;;;;5065788;28;20169;-71
2022/12/03 10:57:40;;;;;;;0.43;0.43;;;4.80;99.90;;;;;;5053338;28;20180;-72
2022/12/03 11:00:06;;;;;;;0.08;0.08;;;4.80;99.90;;;;;;5064259;28;20173;-71
2022/12/03 11:02:32;;;;;;;0.05;0.05;;;4.90;99.90;;;;;;5054742;28;20185;-71
2022/12/03 11:04:58;;;;;;;0.28;0.17;;;4.90;99.90;;;;;;5053367;28;20507;-72
2022/12/03 11:07:25;;;;;;;0.25;0.25;;;4.90;99.90;;;;;;5051743;28;20557;-73
2022/12/03 11:09:54;;;;;;;0.10;0.10;;;4.80;99.90;;;;;;5053042;28;20207;-70
2022/12/03 11:12:28;;;;;;;0.00;0.00;;;4.90;99.90;;;;;;5052733;28;20216;-71
2022/12/03 11:14:53;;;;;;;0.20;0.20;;;4.90;99.90;;;;;;5053206;28;20173;-71
2022/12/03 11:17:45;;;;;;;3.65;0.43;;;5.00;99.90;;;;;;5053034;28;20177;-71
2022/12/03 11:20:30;;;;;;;0.00;0.00;;;5.10;99.90;;;;;;5053162;28;20172;-71
2022/12/03 11:22:57;;;;;;;0.32;0.32;;;5.10;99.90;;;;;;5053001;28;20184;-71
2022/12/03 11:25:26;;;;;;;0.10;0.10;;;5.10;99.90;;;;;;5051765;28;20185;-72
2022/12/03 11:28:10;;;;;;;0.10;0.10;;;5.10;99.90;;;;;;5052981;28;20533;-71
2022/12/03 11:30:47;;;;;;;0.25;0.25;;;5.10;99.90;;;;;;5052905;28;20663;-72
2022/12/03 11:33:25;;;;;;;0.82;0.82;;;5.10;99.90;;;;;;5052246;28;20217;-71
2022/12/03 11:36:03;;;;;;;0.38;0.38;;;5.10;99.90;;;;;;5052352;28;20173;-71
2022/12/03 11:38:40;;;;;;;0.35;0.35;;;5.20;99.90;;;;;;5043838;28;20246;-71
2022/12/03 11:41:17;;;;;;;0.30;0.30;;;5.20;99.90;;;;;;5052517;28;20177;-72
2022/12/03 11:43:52;;;;;;;0.63;0.63;;;5.20;99.90;;;;;;5051787;28;20177;-71
2022/12/03 11:46:27;;;;;;;0.00;0.00;;;5.10;99.90;;;;;;5052179;28;20173;-71
2022/12/03 11:48:55;;;;;;;0.10;0.10;;;5.10;99.90;;;;;;5052451;28;20181;-72
2022/12/03 11:51:23;;;;;;;0.00;0.00;;;5.10;99.90;;;;;;5052529;28;20173;-72
2022/12/03 11:53:51;;;;;;;0.00;0.00;;;5.10;99.90;;;;;;5052213;28;20642;-71
2022/12/03 11:56:23;;;;;;;0.00;0.00;;;5.10;99.90;;;;;;5052626;28;20169;-72
2022/12/03 11:59:00;;;;;;;0.45;0.45;;;5.00;99.90;;;;;;5052397;28;20234;-71
2022/12/03 12:01:38;;;;;;;0.25;0.25;;;5.00;99.90;;;;;;5051209;28;20177;-71
2022/12/03 12:04:04;;;;;;;0.20;0.20;;;5.10;99.90;;;;;;5055616;28;20259;-72
2022/12/03 12:06:43;;;;;;;0.20;0.20;;;5.00;99.90;;;;;;5052824;28;20227;-72
2022/12/03 12:09:09;;;;;;;0.70;0.70;;;5.00;99.90;;;;;;5051106;28;20327;-71
2022/12/03 12:11:38;;;;;;;0.28;0.25;;;5.00;99.90;;;;;;5052185;28;20713;-71
2022/12/03 12:14:07;;;;;;;0.10;0.10;;;5.10;99.90;;;;;;5052340;28;20196;-71
2022/12/03 12:16:53;;;;;;;0.70;0.10;;;5.00;99.90;;;;;;5052162;28;20648;-71
2022/12/03 12:19:34;;;;;;;0.10;0.10;;;5.10;99.90;;;;;;5050548;28;20683;-71
2022/12/03 12:22:18;;;;;;;0.95;0.60;;;5.10;99.90;;;;;;5052031;28;20181;-71
2022/12/03 12:24:50;;;;;;;0.10;0.10;;;5.10;99.90;;;;;;5052119;28;20173;-71
2022/12/03 12:27:36;;;;;;;0.00;0.00;;;5.00;99.90;;;;;;5051848;28;20204;-71
2022/12/03 12:30:09;;;;;;;0.00;0.00;;;5.00;99.90;;;;;;5049412;28;20799;-71
2022/12/03 12:32:45;;;;;;;0.00;0.00;;;4.90;99.90;;;;;;5052044;28;20244;-71
2022/12/03 12:35:18;;;;;;;0.05;0.05;;;4.90;99.90;;;;;;5051403;28;20180;-71
2022/12/03 12:37:44;;;;;;;0.13;0.13;;;4.80;99.90;;;;;;5052021;28;20170;-71
2022/12/03 12:40:14;;;;;;;0.10;0.10;;;4.80;99.90;;;;;;5051727;28;20652;-71
2022/12/03 12:43:01;;;;;;;0.38;0.38;;;4.80;99.90;;;;;;5051899;28;20641;-71
2022/12/03 12:45:29;;;;;;;0.00;0.00;;;4.80;99.90;;;;;;5053026;28;20239;-71
2022/12/03 12:48:32;;;;;;;0.22;0.22;;;4.80;99.90;;;;;;5068363;28;20188;-71
2022/12/03 12:50:59;;;;;;;0.20;0.20;;;4.80;99.90;;;;;;5049454;28;20532;-71
2022/12/03 12:53:26;;;;;;;0.10;0.10;;;4.80;99.90;;;;;;5067651;28;20619;-71
2022/12/03 12:55:58;;;;;;;0.03;0.03;;;4.80;99.90;;;;;;5070533;28;20176;-71
2022/12/03 12:58:24;;;;;;;0.35;0.35;;;4.70;99.90;;;;;;5071775;28;20663;-71
2022/12/03 13:00:57;;;;;;;0.10;0.10;;;4.70;99.90;;;;;;5070407;28;20215;-71
2022/12/03 13:03:28;;;;;;;0.55;0.55;;;4.70;99.90;;;;;;5071767;28;20220;-71
2022/12/03 13:05:55;;;;;;;0.03;0.03;;;4.60;99.90;;;;;;5053143;28;20178;-71
2022/12/03 13:08:30;;;;;;;0.30;0.30;;;4.60;99.90;;;;;;5051378;28;20190;-70
2022/12/03 13:10:59;;;;;;;0.00;0.00;;;4.60;99.90;;;;;;5051050;28;20573;-71
2022/12/03 13:13:27;;;;;;;0.95;0.95;;;4.60;99.90;;;;;;5050805;28;20213;-71
2022/12/03 13:16:05;;;;;;;0.17;0.17;;;4.60;99.90;;;;;;5049711;28;20174;-71
2022/12/03 13:18:39;;;;;;;0.00;0.00;;;4.60;99.90;;;;;;5051312;28;20185;-71
2022/12/03 13:21:35;;;;;;;0.20;0.20;;;4.60;99.90;;;;;;5050317;28;20184;-71
2022/12/03 13:24:01;;;;;;;0.10;0.10;;;4.50;99.90;;;;;;5050983;28;20181;-71
2022/12/03 13:26:38;;;;;;;0.35;0.35;;;4.50;99.90;;;;;;5051502;28;20273;-71